createdAt,value
2023-11-04T00:00:23.028Z,7.44
2023-11-04T00:02:50.082Z,7.46
2023-11-04T00:05:16.890Z,7.48
2023-11-04T00:07:43.954Z,7.49
2023-11-04T00:10:11.478Z,7.49
2023-11-04T00:12:38.785Z,7.48
2023-11-04T00:15:07.087Z,7.45
2023-11-04T00:17:34.070Z,7.42
2023-11-04T00:20:00.855Z,7.38
2023-11-04T00:22:27.586Z,7.33
2023-11-04T00:24:54.969Z,7.27
2023-11-04T00:27:22.304Z,7.20
2023-11-04T00:29:49.357Z,7.16
2023-11-04T00:32:16.383Z,7.12
2023-11-04T00:34:46.063Z,7.06
2023-11-04T00:37:12.833Z,6.96
2023-11-04T00:39:39.601Z,6.88
2023-11-04T00:42:06.540Z,6.85
2023-11-04T00:44:33.372Z,6.84
2023-11-04T00:47:00.752Z,6.80
2023-11-04T00:49:27.657Z,6.79
2023-11-04T00:51:54.634Z,6.74
2023-11-04T00:54:21.363Z,6.73
2023-11-04T00:56:48.333Z,6.70
2023-11-04T00:59:15.211Z,6.68
2023-11-04T01:01:42.755Z,6.67
2023-11-04T01:04:09.719Z,6.67
2023-11-04T01:06:36.658Z,6.68
2023-11-04T01:09:05.098Z,6.66
2023-11-04T01:11:31.871Z,6.66
2023-11-04T01:13:59.341Z,6.67
2023-11-04T01:16:26.161Z,6.68
2023-11-04T01:18:53.123Z,6.69
2023-11-04T01:21:20.079Z,6.68
2023-11-04T01:23:46.925Z,6.71
2023-11-04T01:26:13.641Z,6.73
2023-11-04T01:28:40.435Z,6.74
2023-11-04T01:31:07.720Z,6.74
2023-11-04T01:33:34.565Z,6.73
2023-11-04T01:36:01.644Z,6.71
2023-11-04T01:38:28.468Z,6.71
2023-11-04T01:40:55.874Z,6.69
2023-11-04T01:43:30.435Z,6.65
2023-11-04T01:46:10.617Z,6.61
2023-11-04T01:48:38.016Z,6.61
2023-11-04T01:51:05.556Z,6.59
2023-11-04T01:53:33.757Z,6.55
2023-11-04T01:56:01.744Z,6.55
2023-11-04T01:58:30.373Z,6.56
2023-11-04T02:00:59.323Z,6.52
2023-11-04T02:03:26.767Z,6.51
2023-11-04T02:05:53.951Z,6.49
2023-11-04T02:08:21.144Z,6.47
2023-11-04T02:10:48.494Z,6.45
2023-11-04T02:13:15.302Z,6.46
2023-11-04T02:15:42.122Z,6.47
2023-11-04T02:18:09.131Z,6.47
2023-11-04T02:20:36.298Z,6.47
2023-11-04T02:23:03.016Z,6.48
2023-11-04T02:25:33.364Z,6.46
2023-11-04T02:28:00.054Z,6.48
2023-11-04T02:30:27.090Z,6.51
2023-11-04T02:32:53.964Z,6.51
2023-11-04T02:35:22.198Z,6.55
2023-11-04T02:37:49.245Z,6.56
2023-11-04T02:40:16.634Z,6.57
2023-11-04T02:42:43.635Z,6.60
2023-11-04T02:45:12.282Z,6.61
2023-11-04T02:47:39.189Z,6.62
2023-11-04T02:50:06.541Z,6.62
2023-11-04T02:52:33.235Z,6.62
2023-11-04T02:54:59.936Z,6.61
2023-11-04T02:57:26.829Z,6.62
2023-11-04T02:59:53.648Z,6.61
2023-11-04T03:02:21.623Z,6.63
2023-11-04T03:04:48.448Z,6.63
2023-11-04T03:07:15.310Z,6.65
2023-11-04T03:09:42.094Z,6.66
2023-11-04T03:12:09.028Z,6.69
2023-11-04T03:14:36.072Z,6.70
2023-11-04T03:17:03.102Z,6.73
2023-11-04T03:19:29.841Z,6.77
2023-11-04T03:21:57.741Z,6.80
2023-11-04T03:24:25.864Z,6.80
2023-11-04T03:26:53.316Z,6.81
2023-11-04T03:29:19.984Z,6.82
2023-11-04T03:31:46.698Z,6.82
2023-11-04T03:34:13.554Z,6.83
2023-11-04T03:36:40.363Z,6.84
2023-11-04T03:39:07.293Z,6.84
2023-11-04T03:41:34.310Z,6.84
2023-11-04T03:44:01.048Z,6.85
2023-11-04T03:46:27.776Z,6.86
2023-11-04T03:48:54.555Z,6.86
2023-11-04T03:51:21.312Z,6.87
2023-11-04T03:53:55.756Z,6.87
2023-11-04T03:56:23.522Z,6.87
2023-11-04T03:58:50.263Z,6.87
2023-11-04T04:01:17.033Z,6.87
2023-11-04T04:03:43.792Z,6.86
2023-11-04T04:06:10.943Z,6.86
2023-11-04T04:08:37.605Z,6.87
2023-11-04T04:11:04.903Z,6.86
2023-11-04T04:13:31.781Z,6.87
2023-11-04T04:15:58.463Z,6.87
2023-11-04T04:18:25.297Z,6.88
2023-11-04T04:20:52.066Z,6.88
2023-11-04T04:23:18.815Z,6.88
2023-11-04T04:25:45.504Z,6.90
2023-11-04T04:28:12.319Z,6.91
2023-11-04T04:30:38.997Z,6.93
2023-11-04T04:33:06.653Z,6.93
2023-11-04T04:35:33.555Z,6.96
2023-11-04T04:38:00.262Z,6.97
2023-11-04T04:40:28.764Z,6.99
2023-11-04T04:42:55.851Z,7.00
2023-11-04T04:45:22.746Z,7.04
2023-11-04T04:47:49.529Z,7.05
2023-11-04T04:50:16.379Z,7.08
2023-11-04T04:52:43.059Z,7.11
2023-11-04T04:55:09.803Z,7.11
2023-11-04T04:57:39.273Z,7.12
2023-11-04T05:00:07.909Z,7.14
2023-11-04T05:02:37.677Z,7.16
2023-11-04T05:05:04.802Z,7.18
2023-11-04T05:07:31.549Z,7.19
2023-11-04T05:09:58.831Z,7.20
2023-11-04T05:12:25.672Z,7.20
2023-11-04T05:14:52.359Z,7.20
2023-11-04T05:17:19.407Z,7.22
2023-11-04T05:19:47.779Z,7.24
2023-11-04T05:22:14.499Z,7.24
2023-11-04T05:24:41.392Z,7.25
2023-11-04T05:27:08.135Z,7.26
2023-11-04T05:29:35.511Z,7.26
2023-11-04T05:32:02.263Z,7.21
2023-11-04T05:34:28.975Z,7.18
2023-11-04T05:36:55.707Z,7.15
2023-11-04T05:39:22.539Z,7.11
2023-11-04T05:41:49.330Z,7.08
2023-11-04T05:44:16.931Z,7.06
2023-11-04T05:46:47.641Z,7.04
2023-11-04T05:49:14.995Z,7.02
2023-11-04T05:51:41.764Z,7.01
2023-11-04T05:54:13.034Z,7.01
2023-11-04T05:56:39.935Z,7.00
2023-11-04T05:59:06.698Z,7.00
2023-11-04T06:01:33.436Z,7.00
2023-11-04T06:04:00.325Z,7.01
2023-11-04T06:06:27.204Z,7.02
2023-11-04T06:08:54.671Z,7.03
2023-11-04T06:11:23.978Z,7.03
2023-11-04T06:13:51.104Z,7.02
2023-11-04T06:16:17.822Z,7.03
2023-11-04T06:18:46.567Z,7.03
2023-11-04T06:21:19.260Z,7.05
2023-11-04T06:23:45.956Z,7.07
2023-11-04T06:26:12.642Z,7.07
2023-11-04T06:28:40.942Z,7.09
2023-11-04T06:31:11.567Z,7.10
2023-11-04T06:33:38.369Z,7.10
2023-11-04T06:36:06.108Z,7.13
2023-11-04T06:38:37.767Z,7.14
2023-11-04T06:41:06.038Z,7.16
2023-11-04T06:43:34.129Z,7.17
2023-11-04T06:46:06.223Z,7.18
2023-11-04T06:48:33.021Z,7.19
2023-11-04T06:50:59.796Z,7.23
2023-11-04T06:53:26.470Z,7.25
2023-11-04T06:55:53.432Z,7.25
2023-11-04T06:58:20.092Z,7.23
2023-11-04T07:00:46.929Z,7.24
2023-11-04T07:03:13.779Z,7.23
2023-11-04T07:05:42.018Z,7.24
2023-11-04T07:08:08.760Z,7.23
2023-11-04T07:10:38.424Z,7.24
2023-11-04T07:13:05.372Z,7.24
2023-11-04T07:15:33.134Z,7.26
2023-11-04T07:17:59.870Z,7.27
2023-11-04T07:20:27.168Z,7.28
2023-11-04T07:22:53.850Z,7.27
2023-11-04T07:25:20.987Z,7.29
2023-11-04T07:27:47.725Z,7.28
2023-11-04T07:30:15.200Z,7.29
2023-11-04T07:32:42.734Z,7.28
2023-11-04T07:35:11.208Z,7.29
2023-11-04T07:37:38.535Z,7.28
2023-11-04T07:40:09.752Z,7.27
2023-11-04T07:42:36.934Z,7.26
2023-11-04T07:45:03.773Z,7.27
2023-11-04T07:47:30.461Z,7.28
2023-11-04T07:49:57.208Z,7.26
2023-11-04T07:52:23.926Z,7.27
2023-11-04T07:54:50.862Z,7.27
2023-11-04T07:57:17.839Z,7.27
2023-11-04T07:59:45.613Z,7.28
2023-11-04T08:02:12.285Z,7.29
2023-11-04T08:04:40.445Z,7.31
2023-11-04T08:07:10.337Z,7.33
2023-11-04T08:09:37.280Z,7.34
2023-11-04T08:12:03.944Z,7.34
2023-11-04T08:14:30.659Z,7.34
2023-11-04T08:16:57.275Z,7.34
2023-11-04T08:19:24.030Z,7.34
2023-11-04T08:21:52.554Z,7.33
2023-11-04T08:24:19.392Z,7.31
2023-11-04T08:26:46.069Z,7.30
2023-11-04T08:29:12.821Z,7.29
2023-11-04T08:31:39.474Z,7.29
2023-11-04T08:34:06.329Z,7.27
2023-11-04T08:36:33.224Z,7.29
2023-11-04T08:39:00.412Z,7.29
2023-11-04T08:41:27.126Z,7.31
2023-11-04T08:43:53.797Z,7.32
2023-11-04T08:46:20.615Z,7.34
2023-11-04T08:48:47.506Z,7.37
2023-11-04T08:51:14.300Z,7.39
2023-11-04T08:53:41.004Z,7.44
2023-11-04T08:56:08.257Z,7.46
2023-11-04T08:58:38.412Z,7.49
2023-11-04T09:01:05.840Z,7.54
2023-11-04T09:03:32.579Z,7.58
2023-11-04T09:05:59.451Z,7.63
2023-11-04T09:08:26.216Z,7.70
2023-11-04T09:10:54.118Z,7.76
2023-11-04T09:13:22.318Z,7.83
2023-11-04T09:15:49.049Z,7.89
2023-11-04T09:18:18.419Z,7.94
2023-11-04T09:20:47.244Z,7.99
2023-11-04T09:23:14.019Z,8.04
2023-11-04T09:25:40.666Z,8.07
2023-11-04T09:28:07.587Z,8.11
2023-11-04T09:30:34.437Z,8.12
2023-11-04T09:33:01.411Z,8.15
2023-11-04T09:35:28.189Z,8.18
2023-11-04T09:37:54.890Z,8.21
2023-11-04T09:40:21.537Z,8.23
2023-11-04T09:42:48.828Z,8.27
2023-11-04T09:45:17.870Z,8.31
2023-11-04T09:47:44.603Z,8.37
2023-11-04T09:50:11.445Z,8.41
2023-11-04T09:52:39.693Z,8.45
2023-11-04T09:55:08.140Z,8.47
2023-11-04T09:57:35.903Z,8.51
2023-11-04T10:00:04.765Z,8.53
2023-11-04T10:02:31.469Z,8.54
2023-11-04T10:04:59.795Z,8.55
2023-11-04T10:07:26.511Z,8.56
2023-11-04T10:09:55.027Z,8.55
2023-11-04T10:12:25.211Z,8.54
2023-11-04T10:14:51.946Z,8.53
2023-11-04T10:17:19.004Z,8.50
2023-11-04T10:19:45.783Z,8.49
2023-11-04T10:22:13.697Z,8.47
2023-11-04T10:24:40.424Z,8.44
2023-11-04T10:27:07.161Z,8.43
2023-11-04T10:29:34.488Z,8.42
2023-11-04T10:32:05.021Z,8.41
2023-11-04T10:34:36.048Z,8.40
2023-11-04T10:37:14.565Z,8.40
2023-11-04T10:39:48.090Z,8.41
2023-11-04T10:42:20.465Z,8.42
2023-11-04T10:44:48.328Z,8.41
2023-11-04T10:47:36.449Z,8.42
2023-11-04T10:50:24.356Z,8.41
2023-11-04T10:53:11.871Z,8.43
2023-11-04T10:55:49.705Z,8.42
2023-11-04T10:58:31.075Z,8.44
2023-11-04T11:00:59.119Z,8.45
2023-11-04T11:03:27.078Z,8.49
2023-11-04T11:05:55.956Z,8.53
2023-11-04T11:08:23.628Z,8.57
2023-11-04T11:11:03.448Z,8.62
2023-11-04T11:13:36.039Z,8.69
2023-11-04T11:16:03.605Z,8.73
2023-11-04T11:18:30.663Z,8.76
2023-11-04T11:21:11.280Z,8.79
2023-11-04T11:23:39.217Z,8.84
2023-11-04T11:26:13.636Z,8.88
2023-11-04T11:28:42.106Z,8.91
2023-11-04T11:31:14.091Z,8.93
2023-11-04T11:33:43.772Z,8.93
2023-11-04T11:36:14.726Z,8.94
2023-11-04T11:38:42.020Z,8.94
2023-11-04T11:41:12.198Z,8.95
2023-11-04T11:43:39.143Z,8.95
2023-11-04T11:46:07.240Z,8.93
2023-11-04T11:48:41.667Z,8.93
2023-11-04T11:51:13.554Z,8.96
2023-11-04T11:53:47.444Z,9.01
2023-11-04T11:56:14.262Z,9.06
2023-11-04T11:58:41.481Z,9.09
2023-11-04T12:01:09.497Z,9.13
2023-11-04T12:03:37.437Z,9.17
2023-11-04T12:06:05.082Z,9.23
2023-11-04T12:08:32.391Z,9.25
2023-11-04T12:10:59.327Z,9.30
2023-11-04T12:13:26.461Z,9.35
2023-11-04T12:15:54.053Z,9.39
2023-11-04T12:18:21.209Z,9.44
2023-11-04T12:20:48.130Z,9.45
2023-11-04T12:23:15.779Z,9.44
2023-11-04T12:25:43.517Z,9.47
2023-11-04T12:28:11.251Z,9.49
2023-11-04T12:30:38.458Z,9.53
2023-11-04T12:33:05.569Z,9.61
2023-11-04T12:35:35.175Z,9.66
2023-11-04T12:38:02.345Z,9.71
2023-11-04T12:40:30.792Z,9.76
2023-11-04T12:43:03.359Z,9.84
2023-11-04T12:45:31.095Z,9.92
2023-11-04T12:47:59.430Z,10.02
2023-11-04T12:50:26.311Z,10.13
2023-11-04T12:52:54.511Z,10.23
2023-11-04T12:55:21.966Z,10.33
2023-11-04T12:57:49.181Z,10.42
2023-11-04T13:00:16.311Z,10.43
2023-11-04T13:02:44.761Z,10.35
2023-11-04T13:05:11.896Z,10.27
2023-11-04T13:07:39.055Z,10.22
2023-11-04T13:10:09.863Z,10.17
2023-11-04T13:12:36.877Z,10.12
2023-11-04T13:15:04.193Z,10.08
2023-11-04T13:17:31.802Z,10.09
2023-11-04T13:19:58.600Z,10.08
2023-11-04T13:22:26.477Z,10.07
2023-11-04T13:24:53.334Z,10.03
2023-11-04T13:27:21.524Z,9.96
2023-11-04T13:29:49.331Z,9.91
2023-11-04T13:32:16.243Z,9.89
2023-11-04T13:34:43.079Z,9.87
2023-11-04T13:37:09.854Z,9.85
2023-11-04T13:39:36.662Z,9.84
2023-11-04T13:42:03.414Z,9.84
2023-11-04T13:44:32.177Z,9.82
2023-11-04T13:46:59.221Z,9.82
2023-11-04T13:49:29.060Z,9.84
2023-11-04T13:51:55.894Z,9.80
2023-11-04T13:54:22.605Z,9.76
2023-11-04T13:56:50.173Z,9.75
2023-11-04T13:59:16.821Z,9.73
2023-11-04T14:01:47.614Z,9.71
2023-11-04T14:04:14.967Z,9.68
2023-11-04T14:06:41.866Z,9.68
2023-11-04T14:09:08.668Z,9.66
2023-11-04T14:11:35.386Z,9.63
2023-11-04T14:14:02.144Z,9.63
2023-11-04T14:16:28.876Z,9.64
2023-11-04T14:18:55.795Z,9.63
2023-11-04T14:21:22.709Z,9.65
2023-11-04T14:23:49.573Z,9.65
2023-11-04T14:26:16.229Z,9.68
2023-11-04T14:28:42.872Z,9.68
2023-11-04T14:31:09.574Z,9.69
2023-11-04T14:33:36.398Z,9.68
2023-11-04T14:36:04.438Z,9.67
2023-11-04T14:38:31.110Z,9.68
2023-11-04T14:40:58.126Z,9.66
2023-11-04T14:43:24.946Z,9.69
2023-11-04T14:45:52.665Z,9.69
2023-11-04T14:48:19.414Z,9.68
2023-11-04T14:50:46.352Z,9.70
2023-11-04T14:53:13.033Z,9.70
2023-11-04T14:55:39.954Z,9.69
2023-11-04T14:58:07.057Z,9.68
2023-11-04T15:00:33.824Z,9.68
2023-11-04T15:03:00.937Z,9.70
2023-11-04T15:05:27.661Z,9.68
2023-11-04T15:07:54.377Z,9.70
2023-11-04T15:10:21.287Z,9.72
2023-11-04T15:12:48.539Z,9.73
2023-11-04T15:15:52.815Z,9.72
2023-11-04T15:18:19.521Z,9.72
2023-11-04T15:21:07.096Z,9.66
2023-11-04T15:23:33.848Z,9.60
2023-11-04T15:26:00.502Z,9.53
2023-11-04T15:28:27.539Z,9.51
2023-11-04T15:30:54.310Z,9.48
2023-11-04T15:33:22.059Z,9.47
2023-11-04T15:35:49.633Z,9.44
2023-11-04T15:38:16.253Z,9.43
2023-11-04T15:40:43.154Z,9.42
2023-11-04T15:43:10.214Z,9.40
2023-11-04T15:45:37.290Z,9.40
2023-11-04T15:48:04.889Z,9.37
2023-11-04T15:50:31.783Z,9.35
2023-11-04T15:52:58.433Z,9.32
2023-11-04T15:55:25.195Z,9.32
2023-11-04T15:57:51.946Z,9.28
2023-11-04T16:00:18.878Z,9.26
2023-11-04T16:02:48.418Z,9.25
2023-11-04T16:05:15.424Z,9.25
2023-11-04T16:07:43.258Z,9.25
2023-11-04T16:10:13.218Z,9.24
2023-11-04T16:12:40.614Z,9.22
2023-11-04T16:15:10.795Z,9.21
2023-11-04T16:17:37.817Z,9.19
2023-11-04T16:20:05.179Z,9.17
2023-11-04T16:22:32.001Z,9.16
2023-11-04T16:24:58.782Z,9.17
2023-11-04T16:27:25.733Z,9.15
2023-11-04T16:29:52.410Z,9.14
2023-11-04T16:32:20.246Z,9.15
2023-11-04T16:34:47.184Z,9.11
2023-11-04T16:37:13.908Z,9.11
2023-11-04T16:39:44.584Z,9.11
2023-11-04T16:42:11.488Z,9.12
2023-11-04T16:44:38.193Z,9.11
2023-11-04T16:47:05.799Z,9.10
2023-11-04T16:49:32.839Z,9.09
2023-11-04T16:51:59.545Z,9.08
2023-11-04T16:54:26.271Z,9.08
2023-11-04T16:56:52.954Z,9.08
2023-11-04T16:59:19.653Z,9.05
2023-11-04T17:01:47.246Z,9.06
2023-11-04T17:04:14.081Z,9.04
2023-11-04T17:06:40.936Z,9.04
2023-11-04T17:09:10.879Z,9.04
2023-11-04T17:11:38.750Z,9.04
2023-11-04T17:14:06.309Z,9.04
2023-11-04T17:16:34.263Z,9.03
2023-11-04T17:19:02.156Z,9.01
2023-11-04T17:21:28.943Z,9.00
2023-11-04T17:23:56.209Z,9.00
2023-11-04T17:26:22.999Z,8.98
2023-11-04T17:28:49.818Z,8.97
2023-11-04T17:31:16.550Z,8.97
2023-11-04T17:33:43.838Z,8.97
2023-11-04T17:36:10.940Z,8.95
2023-11-04T17:38:37.672Z,8.94
2023-11-04T17:41:04.658Z,8.93
2023-11-04T17:43:31.540Z,8.92
2023-11-04T17:45:58.429Z,8.91
2023-11-04T17:48:26.267Z,8.90
2023-11-04T17:50:53.167Z,8.91
2023-11-04T17:53:20.784Z,8.92
2023-11-04T17:55:47.563Z,8.93
2023-11-04T17:58:14.811Z,8.91
2023-11-04T18:00:41.513Z,8.92
2023-11-04T18:03:08.797Z,8.91
2023-11-04T18:05:35.749Z,8.88
2023-11-04T18:08:03.658Z,8.88
2023-11-04T18:10:30.425Z,8.88
2023-11-04T18:12:57.076Z,8.85
2023-11-04T18:15:23.819Z,8.83
2023-11-04T18:17:51.698Z,8.80
2023-11-04T18:20:18.434Z,8.74
2023-11-04T18:22:45.197Z,8.70
2023-11-04T18:25:11.898Z,8.67
2023-11-04T18:27:51.105Z,8.65
2023-11-04T18:30:25.462Z,8.60
2023-11-04T18:32:52.426Z,8.59
2023-11-04T18:35:19.553Z,8.58
2023-11-04T18:37:46.377Z,8.56
2023-11-04T18:40:13.463Z,8.53
2023-11-04T18:42:40.338Z,8.51
2023-11-04T18:45:09.293Z,8.49
2023-11-04T18:47:36.130Z,8.48
2023-11-04T18:50:02.909Z,8.48
2023-11-04T18:52:31.183Z,8.47
2023-11-04T18:54:58.351Z,8.46
2023-11-04T18:57:25.414Z,8.46
2023-11-04T18:59:52.400Z,8.47
2023-11-04T19:02:22.916Z,8.47
2023-11-04T19:04:49.916Z,8.46
2023-11-04T19:07:16.800Z,8.47
2023-11-04T19:09:43.547Z,8.47
2023-11-04T19:12:10.766Z,8.48
2023-11-04T19:14:37.540Z,8.47
2023-11-04T19:17:04.480Z,8.45
2023-11-04T19:19:31.161Z,8.42
2023-11-04T19:21:57.980Z,8.38
2023-11-04T19:24:24.768Z,8.34
2023-11-04T19:26:51.495Z,8.29
2023-11-04T19:29:18.258Z,8.26
2023-11-04T19:31:44.948Z,8.20
2023-11-04T19:34:11.702Z,8.16
2023-11-04T19:36:38.377Z,8.11
2023-11-04T19:39:05.328Z,8.05
2023-11-04T19:41:32.103Z,8.04
2023-11-04T19:43:58.844Z,7.99
2023-11-04T19:46:28.414Z,7.92
2023-11-04T19:48:55.559Z,7.87
2023-11-04T19:51:22.379Z,7.81
2023-11-04T19:53:50.117Z,7.76
2023-11-04T19:56:16.792Z,7.71
2023-11-04T19:58:43.732Z,7.67
2023-11-04T20:01:10.697Z,7.61
2023-11-04T20:03:37.662Z,7.56
2023-11-04T20:06:04.845Z,7.52
2023-11-04T20:08:33.678Z,7.49
2023-11-04T20:11:00.440Z,7.45
2023-11-04T20:13:27.406Z,7.39
2023-11-04T20:15:54.594Z,7.34
2023-11-04T20:18:21.341Z,7.30
2023-11-04T20:20:48.858Z,7.27
2023-11-04T20:23:15.984Z,7.23
2023-11-04T20:25:42.692Z,7.23
2023-11-04T20:28:11.843Z,7.19
2023-11-04T20:30:38.517Z,7.18
2023-11-04T20:33:06.350Z,7.17
2023-11-04T20:35:33.146Z,7.16
2023-11-04T20:37:59.988Z,7.12
2023-11-04T20:40:27.842Z,7.09
2023-11-04T20:42:55.208Z,7.08
2023-11-04T20:45:23.714Z,7.08
2023-11-04T20:47:50.489Z,7.08
2023-11-04T20:50:17.280Z,7.08
2023-11-04T20:52:43.985Z,7.06
2023-11-04T20:55:10.797Z,7.07
2023-11-04T20:57:37.657Z,7.06
2023-11-04T21:00:05.973Z,7.05
2023-11-04T21:02:32.764Z,7.05
2023-11-04T21:04:59.550Z,7.02
2023-11-04T21:07:26.470Z,7.00
2023-11-04T21:09:54.346Z,6.99
2023-11-04T21:12:21.175Z,6.97
2023-11-04T21:14:47.824Z,6.97
2023-11-04T21:17:14.583Z,6.97
2023-11-04T21:19:41.371Z,6.96
2023-11-04T21:22:08.295Z,6.95
2023-11-04T21:24:35.029Z,6.94
2023-11-04T21:27:01.870Z,6.94
2023-11-04T21:29:28.590Z,6.94
2023-11-04T21:31:55.342Z,6.93
2023-11-04T21:34:22.219Z,6.91
2023-11-04T21:36:49.699Z,6.90
2023-11-04T21:39:16.902Z,6.91
2023-11-04T21:41:44.433Z,6.92
2023-11-04T21:44:11.206Z,6.93
2023-11-04T21:46:38.226Z,6.94
2023-11-04T21:49:05.190Z,6.94
2023-11-04T21:51:31.938Z,6.93
2023-11-04T21:53:58.626Z,6.93
2023-11-04T21:56:25.421Z,6.92
2023-11-04T21:58:52.128Z,6.89
2023-11-04T22:01:18.810Z,6.90
2023-11-04T22:03:46.889Z,6.88
2023-11-04T22:06:14.175Z,6.87
2023-11-04T22:08:42.778Z,6.86
2023-11-04T22:11:10.880Z,6.86
2023-11-04T22:13:37.572Z,6.85
2023-11-04T22:16:04.614Z,6.83
2023-11-04T22:18:31.843Z,6.83
2023-11-04T22:20:58.575Z,6.82
2023-11-04T22:23:25.394Z,6.79
2023-11-04T22:25:52.646Z,6.78
2023-11-04T22:28:19.478Z,6.80
2023-11-04T22:30:46.628Z,6.78
2023-11-04T22:33:13.567Z,6.78
2023-11-04T22:35:40.385Z,6.74
2023-11-04T22:38:07.133Z,6.72
2023-11-04T22:40:34.009Z,6.74
2023-11-04T22:43:00.784Z,6.75
2023-11-04T22:45:27.555Z,6.74
2023-11-04T22:47:55.242Z,6.73
2023-11-04T22:50:22.150Z,6.75
2023-11-04T22:52:48.937Z,6.75
2023-11-04T22:55:15.818Z,6.74
2023-11-04T22:57:42.674Z,6.73
2023-11-04T23:00:29.839Z,6.73
2023-11-04T23:02:57.796Z,6.70
2023-11-04T23:05:25.040Z,6.73
2023-11-04T23:07:51.812Z,6.74
2023-11-04T23:10:18.585Z,6.75
2023-11-04T23:12:48.189Z,6.73
2023-11-04T23:15:18.267Z,6.75
2023-11-04T23:17:45.026Z,6.74
2023-11-04T23:20:13.393Z,6.75
2023-11-04T23:22:40.585Z,6.76
2023-11-04T23:25:14.976Z,6.78
2023-11-04T23:27:47.522Z,6.80
2023-11-04T23:30:14.264Z,6.79
2023-11-04T23:32:41.102Z,6.80
2023-11-04T23:35:08.165Z,6.82
2023-11-04T23:37:34.889Z,6.83
2023-11-04T23:40:01.814Z,6.86
2023-11-04T23:42:28.511Z,6.90
2023-11-04T23:44:55.188Z,6.92
2023-11-04T23:47:21.995Z,6.94
2023-11-04T23:49:48.907Z,6.97
2023-11-04T23:52:15.714Z,6.99
2023-11-04T23:54:42.494Z,7.03
2023-11-04T23:57:09.273Z,7.04
2023-11-04T23:59:36.272Z,7.05
